sensor_id;sensor_type;location;lat;lon;timestamp;P1;durP1;ratioP1;P2;durP2;ratioP2
62673;SDS011;62269;47.594;17.638;2022-10-13T00:00:37;19.67;;;15.38;;
62673;SDS011;62269;47.594;17.638;2022-10-13T00:01:25;18.17;;;16.30;;
62673;SDS011;62269;47.594;17.638;2022-10-13T00:02:12;17.87;;;15.98;;
62673;SDS011;62269;47.594;17.638;2022-10-13T00:03:00;18.62;;;15.50;;
62673;SDS011;62269;47.594;17.638;2022-10-13T00:03:47;19.40;;;15.80;;
62673;SDS011;62269;47.594;17.638;2022-10-13T00:04:34;17.70;;;15.80;;
62673;SDS011;62269;47.594;17.638;2022-10-13T00:05:21;21.35;;;15.07;;
62673;SDS011;62269;47.594;17.638;2022-10-13T00:06:09;18.98;;;14.73;;
62673;SDS011;62269;47.594;17.638;2022-10-13T00:06:57;18.70;;;15.50;;
62673;SDS011;62269;47.594;17.638;2022-10-13T00:07:43;17.90;;;16.00;;
62673;SDS011;62269;47.594;17.638;2022-10-13T00:08:30;19.25;;;16.02;;
62673;SDS011;62269;47.594;17.638;2022-10-13T00:09:17;21.12;;;16.52;;
62673;SDS011;62269;47.594;17.638;2022-10-13T00:10:04;17.15;;;14.90;;
62673;SDS011;62269;47.594;17.638;2022-10-13T00:10:51;17.52;;;15.57;;
62673;SDS011;62269;47.594;17.638;2022-10-13T00:11:38;18.83;;;15.00;;
62673;SDS011;62269;47.594;17.638;2022-10-13T00:12:25;18.83;;;15.35;;
62673;SDS011;62269;47.594;17.638;2022-10-13T00:13:12;20.30;;;16.15;;
62673;SDS011;62269;47.594;17.638;2022-10-13T00:14:00;19.25;;;15.65;;
62673;SDS011;62269;47.594;17.638;2022-10-13T00:14:48;18.33;;;15.85;;
62673;SDS011;62269;47.594;17.638;2022-10-13T00:15:38;22.80;;;15.73;;
62673;SDS011;62269;47.594;17.638;2022-10-13T00:16:27;17.87;;;15.90;;
62673;SDS011;62269;47.594;17.638;2022-10-13T00:17:14;17.08;;;15.30;;
62673;SDS011;62269;47.594;17.638;2022-10-13T00:18:01;18.33;;;15.35;;
62673;SDS011;62269;47.594;17.638;2022-10-13T00:18:48;20.92;;;15.85;;
62673;SDS011;62269;47.594;17.638;2022-10-13T00:19:35;20.60;;;15.27;;
62673;SDS011;62269;47.594;17.638;2022-10-13T00:20:22;18.98;;;16.25;;
62673;SDS011;62269;47.594;17.638;2022-10-13T00:21:10;18.52;;;15.68;;
62673;SDS011;62269;47.594;17.638;2022-10-13T00:22:01;19.83;;;15.48;;
62673;SDS011;62269;47.594;17.638;2022-10-13T00:22:48;18.27;;;14.80;;
62673;SDS011;62269;47.594;17.638;2022-10-13T00:23:35;17.77;;;14.98;;
62673;SDS011;62269;47.594;17.638;2022-10-13T00:24:22;18.95;;;15.07;;
62673;SDS011;62269;47.594;17.638;2022-10-13T00:25:08;18.05;;;15.65;;
62673;SDS011;62269;47.594;17.638;2022-10-13T00:25:55;20.35;;;15.57;;
62673;SDS011;62269;47.594;17.638;2022-10-13T00:26:42;17.42;;;15.52;;
62673;SDS011;62269;47.594;17.638;2022-10-13T00:27:29;18.25;;;15.30;;
62673;SDS011;62269;47.594;17.638;2022-10-13T00:28:17;18.98;;;14.90;;
62673;SDS011;62269;47.594;17.638;2022-10-13T00:29:04;18.65;;;15.35;;
62673;SDS011;62269;47.594;17.638;2022-10-13T00:29:51;18.77;;;15.98;;
62673;SDS011;62269;47.594;17.638;2022-10-13T00:30:38;16.85;;;15.05;;
62673;SDS011;62269;47.594;17.638;2022-10-13T00:31:26;18.23;;;15.00;;
62673;SDS011;62269;47.594;17.638;2022-10-13T00:32:14;19.75;;;15.85;;
62673;SDS011;62269;47.594;17.638;2022-10-13T00:33:02;16.90;;;14.63;;
62673;SDS011;62269;47.594;17.638;2022-10-13T00:33:49;18.60;;;15.10;;
62673;SDS011;62269;47.594;17.638;2022-10-13T00:34:36;18.45;;;15.02;;
62673;SDS011;62269;47.594;17.638;2022-10-13T00:35:23;20.52;;;16.33;;
62673;SDS011;62269;47.594;17.638;2022-10-13T00:36:10;17.65;;;14.87;;
62673;SDS011;62269;47.594;17.638;2022-10-13T00:36:57;18.55;;;15.60;;
62673;SDS011;62269;47.594;17.638;2022-10-13T00:37:44;18.58;;;15.00;;
62673;SDS011;62269;47.594;17.638;2022-10-13T00:38:31;16.87;;;15.13;;
62673;SDS011;62269;47.594;17.638;2022-10-13T00:39:17;16.58;;;14.63;;
62673;SDS011;62269;47.594;17.638;2022-10-13T00:40:04;20.33;;;15.75;;
62673;SDS011;62269;47.594;17.638;2022-10-13T00:40:53;16.48;;;14.60;;
62673;SDS011;62269;47.594;17.638;2022-10-13T00:41:41;18.65;;;14.52;;
62673;SDS011;62269;47.594;17.638;2022-10-13T00:42:28;17.42;;;14.95;;
62673;SDS011;62269;47.594;17.638;2022-10-13T00:43:16;17.40;;;15.55;;
62673;SDS011;62269;47.594;17.638;2022-10-13T00:44:04;16.42;;;14.52;;
62673;SDS011;62269;47.594;17.638;2022-10-13T00:46:32;15.70;;;14.02;;
62673;SDS011;62269;47.594;17.638;2022-10-13T00:47:22;16.98;;;14.55;;
62673;SDS011;62269;47.594;17.638;2022-10-13T00:48:10;18.55;;;14.15;;
62673;SDS011;62269;47.594;17.638;2022-10-13T00:49:04;18.95;;;13.98;;
62673;SDS011;62269;47.594;17.638;2022-10-13T00:49:53;15.50;;;13.90;;
62673;SDS011;62269;47.594;17.638;2022-10-13T00:50:41;20.37;;;14.15;;
62673;SDS011;62269;47.594;17.638;2022-10-13T00:51:29;17.33;;;13.95;;
62673;SDS011;62269;47.594;17.638;2022-10-13T00:52:18;15.68;;;13.90;;
62673;SDS011;62269;47.594;17.638;2022-10-13T00:53:06;17.27;;;13.90;;
62673;SDS011;62269;47.594;17.638;2022-10-13T00:53:55;17.87;;;15.30;;
62673;SDS011;62269;47.594;17.638;2022-10-13T00:54:42;16.83;;;14.20;;
62673;SDS011;62269;47.594;17.638;2022-10-13T00:55:31;18.77;;;14.45;;
62673;SDS011;62269;47.594;17.638;2022-10-13T00:56:19;17.55;;;14.82;;
62673;SDS011;62269;47.594;17.638;2022-10-13T00:57:07;19.23;;;14.10;;
62673;SDS011;62269;47.594;17.638;2022-10-13T00:57:54;19.02;;;14.52;;
62673;SDS011;62269;47.594;17.638;2022-10-13T00:58:50;18.83;;;13.93;;
62673;SDS011;62269;47.594;17.638;2022-10-13T00:59:37;15.20;;;13.55;;
62673;SDS011;62269;47.594;17.638;2022-10-13T01:00:24;17.15;;;13.77;;
62673;SDS011;62269;47.594;17.638;2022-10-13T01:01:12;17.23;;;14.70;;
62673;SDS011;62269;47.594;17.638;2022-10-13T01:01:59;18.37;;;14.77;;
62673;SDS011;62269;47.594;17.638;2022-10-13T01:02:46;19.55;;;14.48;;
62673;SDS011;62269;47.594;17.638;2022-10-13T01:03:33;15.60;;;13.98;;
62673;SDS011;62269;47.594;17.638;2022-10-13T01:04:21;17.17;;;13.32;;
62673;SDS011;62269;47.594;17.638;2022-10-13T01:05:09;18.20;;;13.50;;
62673;SDS011;62269;47.594;17.638;2022-10-13T01:05:57;16.92;;;14.02;;
62673;SDS011;62269;47.594;17.638;2022-10-13T01:06:46;17.15;;;13.57;;
62673;SDS011;62269;47.594;17.638;2022-10-13T01:07:33;17.90;;;13.93;;
62673;SDS011;62269;47.594;17.638;2022-10-13T01:08:20;17.23;;;14.00;;
62673;SDS011;62269;47.594;17.638;2022-10-13T01:09:08;17.48;;;14.75;;
62673;SDS011;62269;47.594;17.638;2022-10-13T01:09:55;17.10;;;13.10;;
62673;SDS011;62269;47.594;17.638;2022-10-13T01:12:48;16.45;;;12.85;;
62673;SDS011;62269;47.594;17.638;2022-10-13T01:13:40;15.85;;;12.95;;
62673;SDS011;62269;47.594;17.638;2022-10-13T01:14:35;16.77;;;14.48;;
62673;SDS011;62269;47.594;17.638;2022-10-13T01:15:29;17.83;;;13.98;;
62673;SDS011;62269;47.594;17.638;2022-10-13T01:21:39;16.05;;;13.43;;
62673;SDS011;62269;47.594;17.638;2022-10-13T01:24:56;19.05;;;14.27;;
62673;SDS011;62269;47.594;17.638;2022-10-13T01:30:14;16.23;;;13.07;;
62673;SDS011;62269;47.594;17.638;2022-10-13T01:31:06;17.05;;;13.52;;
62673;SDS011;62269;47.594;17.638;2022-10-13T01:32:08;17.37;;;14.32;;
62673;SDS011;62269;47.594;17.638;2022-10-13T01:33:14;20.12;;;14.05;;
62673;SDS011;62269;47.594;17.638;2022-10-13T01:36:31;16.40;;;13.48;;
62673;SDS011;62269;47.594;17.638;2022-10-13T01:37:26;15.15;;;13.25;;
62673;SDS011;62269;47.594;17.638;2022-10-13T01:38:22;16.20;;;14.20;;
62673;SDS011;62269;47.594;17.638;2022-10-13T01:39:28;16.58;;;14.50;;
62673;SDS011;62269;47.594;17.638;2022-10-13T01:41:25;17.62;;;13.57;;
62673;SDS011;62269;47.594;17.638;2022-10-13T01:42:21;16.85;;;14.32;;
62673;SDS011;62269;47.594;17.638;2022-10-13T01:44:14;20.08;;;13.32;;
62673;SDS011;62269;47.594;17.638;2022-10-13T01:45:03;15.25;;;12.75;;
62673;SDS011;62269;47.594;17.638;2022-10-13T01:46:58;17.70;;;13.65;;
62673;SDS011;62269;47.594;17.638;2022-10-13T01:47:46;15.13;;;12.75;;
62673;SDS011;62269;47.594;17.638;2022-10-13T01:48:33;15.77;;;13.25;;
62673;SDS011;62269;47.594;17.638;2022-10-13T01:49:23;17.90;;;12.95;;
62673;SDS011;62269;47.594;17.638;2022-10-13T01:50:12;15.52;;;13.23;;
62673;SDS011;62269;47.594;17.638;2022-10-13T01:51:00;16.55;;;13.80;;
62673;SDS011;62269;47.594;17.638;2022-10-13T01:51:47;14.98;;;13.35;;
62673;SDS011;62269;47.594;17.638;2022-10-13T01:52:36;17.50;;;13.70;;
62673;SDS011;62269;47.594;17.638;2022-10-13T01:53:24;17.02;;;12.80;;
62673;SDS011;62269;47.594;17.638;2022-10-13T01:54:11;14.30;;;12.80;;
62673;SDS011;62269;47.594;17.638;2022-10-13T01:55:03;15.98;;;13.68;;
62673;SDS011;62269;47.594;17.638;2022-10-13T01:55:58;24.10;;;13.77;;
62673;SDS011;62269;47.594;17.638;2022-10-13T01:56:55;14.63;;;13.13;;
62673;SDS011;62269;47.594;17.638;2022-10-13T01:57:43;18.27;;;13.07;;
62673;SDS011;62269;47.594;17.638;2022-10-13T01:58:32;15.50;;;13.62;;
62673;SDS011;62269;47.594;17.638;2022-10-13T01:59:19;16.73;;;13.38;;
62673;SDS011;62269;47.594;17.638;2022-10-13T02:00:09;15.27;;;13.40;;
62673;SDS011;62269;47.594;17.638;2022-10-13T02:02:12;16.92;;;13.07;;
62673;SDS011;62269;47.594;17.638;2022-10-13T02:03:16;17.45;;;13.18;;
62673;SDS011;62269;47.594;17.638;2022-10-13T02:04:16;20.00;;;13.95;;
62673;SDS011;62269;47.594;17.638;2022-10-13T02:06:09;16.60;;;13.95;;
62673;SDS011;62269;47.594;17.638;2022-10-13T02:08:01;14.63;;;12.90;;
62673;SDS011;62269;47.594;17.638;2022-10-13T02:09:13;16.67;;;12.77;;
62673;SDS011;62269;47.594;17.638;2022-10-13T02:10:06;14.70;;;12.32;;
62673;SDS011;62269;47.594;17.638;2022-10-13T02:12:04;15.88;;;13.32;;
62673;SDS011;62269;47.594;17.638;2022-10-13T02:12:58;14.75;;;12.55;;
62673;SDS011;62269;47.594;17.638;2022-10-13T02:14:37;15.70;;;13.18;;
62673;SDS011;62269;47.594;17.638;2022-10-13T02:15:30;17.52;;;12.90;;
62673;SDS011;62269;47.594;17.638;2022-10-13T02:16:21;16.90;;;12.98;;
62673;SDS011;62269;47.594;17.638;2022-10-13T02:17:09;15.82;;;13.38;;
62673;SDS011;62269;47.594;17.638;2022-10-13T02:17:56;18.50;;;13.88;;
62673;SDS011;62269;47.594;17.638;2022-10-13T02:18:43;15.82;;;13.68;;
62673;SDS011;62269;47.594;17.638;2022-10-13T02:19:33;17.02;;;14.10;;
62673;SDS011;62269;47.594;17.638;2022-10-13T02:20:22;15.85;;;12.80;;
62673;SDS011;62269;47.594;17.638;2022-10-13T02:21:09;16.25;;;13.43;;
62673;SDS011;62269;47.594;17.638;2022-10-13T02:21:56;20.15;;;13.88;;
62673;SDS011;62269;47.594;17.638;2022-10-13T02:22:44;19.77;;;14.07;;
62673;SDS011;62269;47.594;17.638;2022-10-13T02:23:32;17.45;;;14.13;;
62673;SDS011;62269;47.594;17.638;2022-10-13T02:24:19;16.87;;;13.73;;
62673;SDS011;62269;47.594;17.638;2022-10-13T02:25:06;16.52;;;14.25;;
62673;SDS011;62269;47.594;17.638;2022-10-13T02:25:54;16.27;;;14.57;;
62673;SDS011;62269;47.594;17.638;2022-10-13T02:26:42;19.05;;;13.35;;
62673;SDS011;62269;47.594;17.638;2022-10-13T02:27:29;16.15;;;14.45;;
62673;SDS011;62269;47.594;17.638;2022-10-13T02:28:16;17.50;;;13.32;;
62673;SDS011;62269;47.594;17.638;2022-10-13T02:29:08;18.00;;;13.80;;
62673;SDS011;62269;47.594;17.638;2022-10-13T02:29:56;14.85;;;13.35;;
62673;SDS011;62269;47.594;17.638;2022-10-13T02:30:43;16.95;;;13.73;;
62673;SDS011;62269;47.594;17.638;2022-10-13T02:31:31;19.30;;;14.30;;
62673;SDS011;62269;47.594;17.638;2022-10-13T02:32:18;17.05;;;14.18;;
62673;SDS011;62269;47.594;17.638;2022-10-13T02:33:06;19.20;;;14.75;;
62673;SDS011;62269;47.594;17.638;2022-10-13T02:33:53;22.17;;;13.35;;
62673;SDS011;62269;47.594;17.638;2022-10-13T02:34:40;18.27;;;13.73;;
62673;SDS011;62269;47.594;17.638;2022-10-13T02:35:27;16.12;;;13.40;;
62673;SDS011;62269;47.594;17.638;2022-10-13T02:36:15;18.65;;;14.15;;
62673;SDS011;62269;47.594;17.638;2022-10-13T02:37:01;16.27;;;14.57;;
62673;SDS011;62269;47.594;17.638;2022-10-13T02:37:48;16.45;;;13.85;;
62673;SDS011;62269;47.594;17.638;2022-10-13T02:38:35;20.12;;;14.40;;
62673;SDS011;62269;47.594;17.638;2022-10-13T02:39:22;16.40;;;13.82;;
62673;SDS011;62269;47.594;17.638;2022-10-13T02:40:09;19.05;;;14.75;;
62673;SDS011;62269;47.594;17.638;2022-10-13T02:40:56;19.50;;;14.63;;
62673;SDS011;62269;47.594;17.638;2022-10-13T02:41:43;17.17;;;15.35;;
62673;SDS011;62269;47.594;17.638;2022-10-13T02:42:30;16.30;;;13.88;;
62673;SDS011;62269;47.594;17.638;2022-10-13T02:43:17;19.83;;;13.93;;
62673;SDS011;62269;47.594;17.638;2022-10-13T02:44:04;14.93;;;13.32;;
62673;SDS011;62269;47.594;17.638;2022-10-13T02:44:51;18.65;;;14.23;;
62673;SDS011;62269;47.594;17.638;2022-10-13T02:45:38;17.20;;;13.13;;
62673;SDS011;62269;47.594;17.638;2022-10-13T02:46:25;15.65;;;14.05;;
62673;SDS011;62269;47.594;17.638;2022-10-13T02:47:12;16.62;;;14.13;;
62673;SDS011;62269;47.594;17.638;2022-10-13T02:47:58;19.02;;;14.13;;
62673;SDS011;62269;47.594;17.638;2022-10-13T02:48:45;18.23;;;13.48;;
62673;SDS011;62269;47.594;17.638;2022-10-13T02:49:32;16.77;;;14.40;;
62673;SDS011;62269;47.594;17.638;2022-10-13T02:50:19;17.05;;;13.95;;
62673;SDS011;62269;47.594;17.638;2022-10-13T02:51:06;21.08;;;14.32;;
62673;SDS011;62269;47.594;17.638;2022-10-13T02:51:53;17.70;;;14.32;;
62673;SDS011;62269;47.594;17.638;2022-10-13T02:52:40;20.27;;;14.05;;
62673;SDS011;62269;47.594;17.638;2022-10-13T02:53:26;15.65;;;13.80;;
62673;SDS011;62269;47.594;17.638;2022-10-13T02:54:13;17.23;;;14.63;;
62673;SDS011;62269;47.594;17.638;2022-10-13T02:55:00;21.75;;;14.90;;
62673;SDS011;62269;47.594;17.638;2022-10-13T02:55:47;16.67;;;13.77;;
62673;SDS011;62269;47.594;17.638;2022-10-13T02:56:34;15.63;;;13.73;;
62673;SDS011;62269;47.594;17.638;2022-10-13T02:57:21;19.62;;;14.45;;
62673;SDS011;62269;47.594;17.638;2022-10-13T02:58:07;21.30;;;13.55;;
62673;SDS011;62269;47.594;17.638;2022-10-13T02:58:54;17.52;;;14.23;;
62673;SDS011;62269;47.594;17.638;2022-10-13T02:59:41;21.17;;;14.85;;
62673;SDS011;62269;47.594;17.638;2022-10-13T03:00:28;15.68;;;13.57;;
62673;SDS011;62269;47.594;17.638;2022-10-13T03:01:15;20.10;;;13.98;;
62673;SDS011;62269;47.594;17.638;2022-10-13T03:02:02;19.27;;;14.38;;
62673;SDS011;62269;47.594;17.638;2022-10-13T03:02:49;16.45;;;13.02;;
62673;SDS011;62269;47.594;17.638;2022-10-13T03:03:36;17.50;;;13.55;;
62673;SDS011;62269;47.594;17.638;2022-10-13T03:04:23;17.85;;;14.00;;
62673;SDS011;62269;47.594;17.638;2022-10-13T03:05:10;18.12;;;14.40;;
62673;SDS011;62269;47.594;17.638;2022-10-13T03:05:57;17.50;;;13.68;;
62673;SDS011;62269;47.594;17.638;2022-10-13T03:06:44;17.98;;;13.73;;
62673;SDS011;62269;47.594;17.638;2022-10-13T03:07:31;19.33;;;13.77;;
62673;SDS011;62269;47.594;17.638;2022-10-13T03:08:17;25.33;;;13.82;;
62673;SDS011;62269;47.594;17.638;2022-10-13T03:09:04;17.95;;;14.30;;
62673;SDS011;62269;47.594;17.638;2022-10-13T03:09:51;18.92;;;13.57;;
62673;SDS011;62269;47.594;17.638;2022-10-13T03:10:38;18.85;;;14.38;;
62673;SDS011;62269;47.594;17.638;2022-10-13T03:11:25;17.23;;;13.77;;
62673;SDS011;62269;47.594;17.638;2022-10-13T03:12:12;14.85;;;13.32;;
62673;SDS011;62269;47.594;17.638;2022-10-13T03:12:59;16.87;;;13.93;;
62673;SDS011;62269;47.594;17.638;2022-10-13T03:13:46;15.95;;;14.25;;
62673;SDS011;62269;47.594;17.638;2022-10-13T03:14:33;16.58;;;13.73;;
62673;SDS011;62269;47.594;17.638;2022-10-13T03:15:19;16.37;;;14.30;;
62673;SDS011;62269;47.594;17.638;2022-10-13T03:16:06;18.42;;;14.63;;
62673;SDS011;62269;47.594;17.638;2022-10-13T03:16:53;16.23;;;14.35;;
62673;SDS011;62269;47.594;17.638;2022-10-13T03:17:40;17.48;;;14.32;;
62673;SDS011;62269;47.594;17.638;2022-10-13T03:18:27;15.40;;;13.80;;
62673;SDS011;62269;47.594;17.638;2022-10-13T03:19:14;18.58;;;14.27;;
62673;SDS011;62269;47.594;17.638;2022-10-13T03:20:01;17.45;;;13.50;;
62673;SDS011;62269;47.594;17.638;2022-10-13T03:21:01;17.52;;;14.50;;
62673;SDS011;62269;47.594;17.638;2022-10-13T03:22:35;20.33;;;13.93;;
62673;SDS011;62269;47.594;17.638;2022-10-13T03:23:22;19.27;;;13.68;;
62673;SDS011;62269;47.594;17.638;2022-10-13T03:24:09;20.83;;;14.70;;
62673;SDS011;62269;47.594;17.638;2022-10-13T03:24:56;19.10;;;15.02;;
62673;SDS011;62269;47.594;17.638;2022-10-13T03:25:42;16.50;;;14.23;;
62673;SDS011;62269;47.594;17.638;2022-10-13T03:26:29;16.60;;;14.80;;
62673;SDS011;62269;47.594;17.638;2022-10-13T03:27:17;17.85;;;15.63;;
62673;SDS011;62269;47.594;17.638;2022-10-13T03:28:03;19.12;;;14.98;;
62673;SDS011;62269;47.594;17.638;2022-10-13T03:28:50;21.52;;;16.77;;
62673;SDS011;62269;47.594;17.638;2022-10-13T03:29:38;18.30;;;14.77;;
62673;SDS011;62269;47.594;17.638;2022-10-13T03:30:25;18.35;;;15.57;;
62673;SDS011;62269;47.594;17.638;2022-10-13T03:31:12;18.95;;;14.68;;
62673;SDS011;62269;47.594;17.638;2022-10-13T03:31:59;18.85;;;15.57;;
62673;SDS011;62269;47.594;17.638;2022-10-13T03:32:46;17.98;;;14.70;;
62673;SDS011;62269;47.594;17.638;2022-10-13T03:33:33;18.35;;;15.82;;
62673;SDS011;62269;47.594;17.638;2022-10-13T03:34:20;18.48;;;15.65;;
62673;SDS011;62269;47.594;17.638;2022-10-13T03:35:07;18.73;;;15.95;;
62673;SDS011;62269;47.594;17.638;2022-10-13T03:35:56;17.65;;;15.20;;
62673;SDS011;62269;47.594;17.638;2022-10-13T03:36:44;19.70;;;17.42;;
62673;SDS011;62269;47.594;17.638;2022-10-13T03:37:31;17.80;;;15.93;;
62673;SDS011;62269;47.594;17.638;2022-10-13T03:38:18;17.67;;;15.82;;
62673;SDS011;62269;47.594;17.638;2022-10-13T03:39:05;21.02;;;17.37;;
62673;SDS011;62269;47.594;17.638;2022-10-13T03:39:52;19.73;;;15.73;;
62673;SDS011;62269;47.594;17.638;2022-10-13T03:40:38;18.08;;;16.15;;
62673;SDS011;62269;47.594;17.638;2022-10-13T03:41:25;18.17;;;16.17;;
62673;SDS011;62269;47.594;17.638;2022-10-13T03:42:12;19.87;;;16.62;;
62673;SDS011;62269;47.594;17.638;2022-10-13T03:42:59;21.65;;;18.23;;
62673;SDS011;62269;47.594;17.638;2022-10-13T03:43:46;24.50;;;18.20;;
62673;SDS011;62269;47.594;17.638;2022-10-13T03:44:32;19.33;;;17.33;;
62673;SDS011;62269;47.594;17.638;2022-10-13T03:45:19;24.55;;;18.37;;
62673;SDS011;62269;47.594;17.638;2022-10-13T03:46:07;29.55;;;19.60;;
62673;SDS011;62269;47.594;17.638;2022-10-13T03:46:54;21.73;;;17.98;;
62673;SDS011;62269;47.594;17.638;2022-10-13T03:47:41;20.67;;;18.08;;
62673;SDS011;62269;47.594;17.638;2022-10-13T03:48:28;21.80;;;18.20;;
62673;SDS011;62269;47.594;17.638;2022-10-13T03:49:15;25.62;;;19.08;;
62673;SDS011;62269;47.594;17.638;2022-10-13T03:50:03;21.50;;;17.65;;
62673;SDS011;62269;47.594;17.638;2022-10-13T03:50:51;21.65;;;18.10;;
62673;SDS011;62269;47.594;17.638;2022-10-13T03:51:38;23.12;;;17.87;;
62673;SDS011;62269;47.594;17.638;2022-10-13T03:52:25;23.87;;;19.12;;
62673;SDS011;62269;47.594;17.638;2022-10-13T03:53:12;20.73;;;18.52;;
62673;SDS011;62269;47.594;17.638;2022-10-13T03:53:59;20.73;;;18.27;;
62673;SDS011;62269;47.594;17.638;2022-10-13T03:54:45;21.77;;;19.52;;
62673;SDS011;62269;47.594;17.638;2022-10-13T03:55:32;23.95;;;19.98;;
62673;SDS011;62269;47.594;17.638;2022-10-13T03:56:21;21.95;;;18.65;;
62673;SDS011;62269;47.594;17.638;2022-10-13T03:57:12;23.60;;;18.55;;
62673;SDS011;62269;47.594;17.638;2022-10-13T03:57:58;21.33;;;18.40;;
62673;SDS011;62269;47.594;17.638;2022-10-13T03:58:45;21.23;;;18.25;;
62673;SDS011;62269;47.594;17.638;2022-10-13T03:59:32;21.92;;;18.23;;
62673;SDS011;62269;47.594;17.638;2022-10-13T04:00:22;23.80;;;18.60;;
62673;SDS011;62269;47.594;17.638;2022-10-13T04:01:09;24.25;;;18.65;;
62673;SDS011;62269;47.594;17.638;2022-10-13T04:01:56;21.65;;;18.23;;
62673;SDS011;62269;47.594;17.638;2022-10-13T04:02:43;21.12;;;18.35;;
62673;SDS011;62269;47.594;17.638;2022-10-13T04:03:30;22.85;;;19.15;;
62673;SDS011;62269;47.594;17.638;2022-10-13T04:04:17;20.80;;;18.37;;
62673;SDS011;62269;47.594;17.638;2022-10-13T04:05:04;24.50;;;18.15;;
62673;SDS011;62269;47.594;17.638;2022-10-13T04:05:51;21.37;;;18.75;;
62673;SDS011;62269;47.594;17.638;2022-10-13T04:06:38;22.17;;;19.02;;
62673;SDS011;62269;47.594;17.638;2022-10-13T04:07:25;24.58;;;17.80;;
62673;SDS011;62269;47.594;17.638;2022-10-13T04:08:12;27.60;;;18.52;;
62673;SDS011;62269;47.594;17.638;2022-10-13T04:08:59;21.45;;;17.05;;
62673;SDS011;62269;47.594;17.638;2022-10-13T04:09:46;24.50;;;18.10;;
62673;SDS011;62269;47.594;17.638;2022-10-13T04:10:33;23.42;;;18.37;;
62673;SDS011;62269;47.594;17.638;2022-10-13T04:11:20;20.20;;;16.92;;
62673;SDS011;62269;47.594;17.638;2022-10-13T04:12:07;22.95;;;19.27;;
62673;SDS011;62269;47.594;17.638;2022-10-13T04:12:54;20.05;;;17.92;;
62673;SDS011;62269;47.594;17.638;2022-10-13T04:13:41;24.10;;;19.08;;
62673;SDS011;62269;47.594;17.638;2022-10-13T04:14:28;22.20;;;18.05;;
62673;SDS011;62269;47.594;17.638;2022-10-13T04:15:15;20.45;;;17.87;;
62673;SDS011;62269;47.594;17.638;2022-10-13T04:16:03;20.30;;;17.75;;
62673;SDS011;62269;47.594;17.638;2022-10-13T04:16:51;22.08;;;17.12;;
62673;SDS011;62269;47.594;17.638;2022-10-13T04:17:38;21.48;;;18.70;;
62673;SDS011;62269;47.594;17.638;2022-10-13T04:18:24;19.73;;;17.65;;
62673;SDS011;62269;47.594;17.638;2022-10-13T04:19:12;20.70;;;17.62;;
62673;SDS011;62269;47.594;17.638;2022-10-13T04:20:00;23.95;;;18.00;;
62673;SDS011;62269;47.594;17.638;2022-10-13T04:20:47;19.60;;;17.60;;
62673;SDS011;62269;47.594;17.638;2022-10-13T04:21:34;21.30;;;17.70;;
62673;SDS011;62269;47.594;17.638;2022-10-13T04:22:21;22.20;;;17.73;;
62673;SDS011;62269;47.594;17.638;2022-10-13T04:23:08;18.87;;;16.90;;
62673;SDS011;62269;47.594;17.638;2022-10-13T04:23:56;22.95;;;17.08;;
62673;SDS011;62269;47.594;17.638;2022-10-13T04:24:43;21.10;;;17.55;;
62673;SDS011;62269;47.594;17.638;2022-10-13T04:25:32;22.98;;;17.62;;
62673;SDS011;62269;47.594;17.638;2022-10-13T04:26:21;19.33;;;16.35;;
62673;SDS011;62269;47.594;17.638;2022-10-13T04:27:09;20.62;;;17.40;;
62673;SDS011;62269;47.594;17.638;2022-10-13T04:27:56;22.95;;;17.60;;
62673;SDS011;62269;47.594;17.638;2022-10-13T04:28:43;19.60;;;17.40;;
62673;SDS011;62269;47.594;17.638;2022-10-13T04:29:32;20.15;;;17.67;;
62673;SDS011;62269;47.594;17.638;2022-10-13T04:30:19;22.20;;;18.33;;
62673;SDS011;62269;47.594;17.638;2022-10-13T04:31:06;21.92;;;18.45;;
62673;SDS011;62269;47.594;17.638;2022-10-13T04:31:53;20.02;;;17.65;;
62673;SDS011;62269;47.594;17.638;2022-10-13T04:32:40;19.50;;;17.52;;
62673;SDS011;62269;47.594;17.638;2022-10-13T04:33:26;27.77;;;17.27;;
62673;SDS011;62269;47.594;17.638;2022-10-13T04:34:14;21.23;;;18.02;;
62673;SDS011;62269;47.594;17.638;2022-10-13T04:35:01;21.42;;;17.80;;
62673;SDS011;62269;47.594;17.638;2022-10-13T04:35:48;22.75;;;17.60;;
62673;SDS011;62269;47.594;17.638;2022-10-13T04:36:35;21.45;;;16.95;;
62673;SDS011;62269;47.594;17.638;2022-10-13T04:37:22;20.08;;;17.25;;
62673;SDS011;62269;47.594;17.638;2022-10-13T04:38:10;22.05;;;17.42;;
62673;SDS011;62269;47.594;17.638;2022-10-13T04:38:56;19.10;;;16.77;;
62673;SDS011;62269;47.594;17.638;2022-10-13T04:39:43;21.12;;;17.50;;
62673;SDS011;62269;47.594;17.638;2022-10-13T04:40:30;19.75;;;17.33;;
62673;SDS011;62269;47.594;17.638;2022-10-13T04:41:17;21.45;;;18.30;;
62673;SDS011;62269;47.594;17.638;2022-10-13T04:42:04;21.95;;;18.52;;
62673;SDS011;62269;47.594;17.638;2022-10-13T04:42:51;23.00;;;18.90;;
62673;SDS011;62269;47.594;17.638;2022-10-13T04:43:38;20.40;;;18.23;;
62673;SDS011;62269;47.594;17.638;2022-10-13T04:44:25;22.20;;;18.00;;
62673;SDS011;62269;47.594;17.638;2022-10-13T04:45:12;19.65;;;17.52;;
62673;SDS011;62269;47.594;17.638;2022-10-13T04:45:59;19.80;;;17.60;;
62673;SDS011;62269;47.594;17.638;2022-10-13T04:46:50;23.95;;;17.98;;
62673;SDS011;62269;47.594;17.638;2022-10-13T04:47:36;26.55;;;18.87;;
62673;SDS011;62269;47.594;17.638;2022-10-13T04:48:25;20.92;;;17.55;;
62673;SDS011;62269;47.594;17.638;2022-10-13T04:49:11;22.27;;;18.20;;
62673;SDS011;62269;47.594;17.638;2022-10-13T04:49:58;19.55;;;17.45;;
62673;SDS011;62269;47.594;17.638;2022-10-13T04:50:45;22.20;;;18.50;;
62673;SDS011;62269;47.594;17.638;2022-10-13T04:51:32;25.50;;;18.73;;
62673;SDS011;62269;47.594;17.638;2022-10-13T04:52:19;20.37;;;18.00;;
62673;SDS011;62269;47.594;17.638;2022-10-13T04:53:06;22.85;;;18.00;;
62673;SDS011;62269;47.594;17.638;2022-10-13T04:53:56;23.45;;;18.35;;
62673;SDS011;62269;47.594;17.638;2022-10-13T04:54:44;19.98;;;17.67;;
62673;SDS011;62269;47.594;17.638;2022-10-13T04:55:30;19.02;;;16.83;;
62673;SDS011;62269;47.594;17.638;2022-10-13T04:56:21;19.87;;;16.58;;
62673;SDS011;62269;47.594;17.638;2022-10-13T04:57:08;21.52;;;17.58;;
62673;SDS011;62269;47.594;17.638;2022-10-13T04:57:54;17.37;;;15.43;;
62673;SDS011;62269;47.594;17.638;2022-10-13T04:58:42;20.08;;;16.05;;
62673;SDS011;62269;47.594;17.638;2022-10-13T04:59:29;22.23;;;16.95;;
62673;SDS011;62269;47.594;17.638;2022-10-13T05:00:16;18.70;;;16.73;;
62673;SDS011;62269;47.594;17.638;2022-10-13T05:01:04;19.35;;;15.80;;
62673;SDS011;62269;47.594;17.638;2022-10-13T05:01:52;17.92;;;15.88;;
62673;SDS011;62269;47.594;17.638;2022-10-13T05:02:39;16.95;;;15.18;;
62673;SDS011;62269;47.594;17.638;2022-10-13T05:03:25;21.10;;;16.98;;
62673;SDS011;62269;47.594;17.638;2022-10-13T05:04:12;18.45;;;15.20;;
62673;SDS011;62269;47.594;17.638;2022-10-13T05:04:59;17.55;;;14.40;;